sensor_id;sensor_type;location;lat;lon;timestamp;temperature;humidity
37530;DHT22;23374;52.758;6.872;2023-06-26T00:03:06;25.80;1.00
37530;DHT22;23374;52.758;6.872;2023-06-26T00:05:27;25.70;1.00
37530;DHT22;23374;52.758;6.872;2023-06-26T00:07:48;25.70;1.00
37530;DHT22;23374;52.758;6.872;2023-06-26T00:10:09;25.70;1.00
37530;DHT22;23374;52.758;6.872;2023-06-26T00:12:30;25.60;1.00
37530;DHT22;23374;52.758;6.872;2023-06-26T00:14:51;25.50;1.00
37530;DHT22;23374;52.758;6.872;2023-06-26T00:17:12;25.50;1.00
37530;DHT22;23374;52.758;6.872;2023-06-26T00:19:32;25.50;1.00
37530;DHT22;23374;52.758;6.872;2023-06-26T00:21:53;25.40;1.00
37530;DHT22;23374;52.758;6.872;2023-06-26T00:24:14;25.40;1.00
37530;DHT22;23374;52.758;6.872;2023-06-26T00:26:35;25.40;1.00
37530;DHT22;23374;52.758;6.872;2023-06-26T00:28:55;25.30;1.00
37530;DHT22;23374;52.758;6.872;2023-06-26T00:31:15;25.30;1.00
37530;DHT22;23374;52.758;6.872;2023-06-26T00:33:36;25.30;1.00
37530;DHT22;23374;52.758;6.872;2023-06-26T00:35:56;25.20;1.00
37530;DHT22;23374;52.758;6.872;2023-06-26T00:38:17;25.20;1.00
37530;DHT22;23374;52.758;6.872;2023-06-26T00:40:37;25.20;1.00
37530;DHT22;23374;52.758;6.872;2023-06-26T00:42:57;25.10;1.00
37530;DHT22;23374;52.758;6.872;2023-06-26T00:45:18;25.10;1.00
37530;DHT22;23374;52.758;6.872;2023-06-26T00:47:39;25.00;1.00
37530;DHT22;23374;52.758;6.872;2023-06-26T00:49:59;25.00;1.00
37530;DHT22;23374;52.758;6.872;2023-06-26T00:52:20;25.00;1.00
37530;DHT22;23374;52.758;6.872;2023-06-26T00:54:41;24.90;1.00
37530;DHT22;23374;52.758;6.872;2023-06-26T00:57:01;24.90;1.00
37530;DHT22;23374;52.758;6.872;2023-06-26T00:59:22;24.90;1.00
37530;DHT22;23374;52.758;6.872;2023-06-26T01:03:12;24.90;1.00
37530;DHT22;23374;52.758;6.872;2023-06-26T01:05:32;24.90;1.00
37530;DHT22;23374;52.758;6.872;2023-06-26T01:07:52;24.90;1.00
37530;DHT22;23374;52.758;6.872;2023-06-26T01:10:14;24.80;1.00
37530;DHT22;23374;52.758;6.872;2023-06-26T01:12:35;24.80;1.00
37530;DHT22;23374;52.758;6.872;2023-06-26T01:14:57;24.70;1.00
37530;DHT22;23374;52.758;6.872;2023-06-26T01:17:18;24.70;1.00
37530;DHT22;23374;52.758;6.872;2023-06-26T01:19:39;24.70;1.00
37530;DHT22;23374;52.758;6.872;2023-06-26T01:23:58;24.70;1.00
37530;DHT22;23374;52.758;6.872;2023-06-26T01:26:28;24.60;1.00
37530;DHT22;23374;52.758;6.872;2023-06-26T01:28:51;24.60;1.00
37530;DHT22;23374;52.758;6.872;2023-06-26T01:31:13;24.50;1.00
37530;DHT22;23374;52.758;6.872;2023-06-26T01:33:34;24.50;1.00
37530;DHT22;23374;52.758;6.872;2023-06-26T01:35:56;24.40;1.00
37530;DHT22;23374;52.758;6.872;2023-06-26T01:38:21;24.40;1.00
37530;DHT22;23374;52.758;6.872;2023-06-26T01:40:43;24.40;1.00
37530;DHT22;23374;52.758;6.872;2023-06-26T01:43:06;24.40;1.00
37530;DHT22;23374;52.758;6.872;2023-06-26T01:45:29;24.40;1.00
37530;DHT22;23374;52.758;6.872;2023-06-26T01:47:52;24.30;1.00
37530;DHT22;23374;52.758;6.872;2023-06-26T01:50:18;24.30;1.00
37530;DHT22;23374;52.758;6.872;2023-06-26T01:52:49;24.30;1.00
37530;DHT22;23374;52.758;6.872;2023-06-26T01:55:40;24.30;1.00
37530;DHT22;23374;52.758;6.872;2023-06-26T01:58:03;24.20;1.00
37530;DHT22;23374;52.758;6.872;2023-06-26T02:00:24;24.20;1.00
37530;DHT22;23374;52.758;6.872;2023-06-26T02:03:16;24.10;1.00
37530;DHT22;23374;52.758;6.872;2023-06-26T02:05:37;24.10;1.00
37530;DHT22;23374;52.758;6.872;2023-06-26T02:07:57;24.10;1.00
37530;DHT22;23374;52.758;6.872;2023-06-26T02:10:18;24.10;1.00
37530;DHT22;23374;52.758;6.872;2023-06-26T02:12:39;24.10;1.00
37530;DHT22;23374;52.758;6.872;2023-06-26T02:14:59;24.10;1.00
37530;DHT22;23374;52.758;6.872;2023-06-26T02:17:19;24.00;1.00
37530;DHT22;23374;52.758;6.872;2023-06-26T02:19:40;24.00;1.00
37530;DHT22;23374;52.758;6.872;2023-06-26T02:22:07;24.00;1.00
37530;DHT22;23374;52.758;6.872;2023-06-26T02:24:27;23.90;1.00
37530;DHT22;23374;52.758;6.872;2023-06-26T02:26:50;23.90;1.00
37530;DHT22;23374;52.758;6.872;2023-06-26T02:29:10;23.90;1.00
37530;DHT22;23374;52.758;6.872;2023-06-26T02:31:30;23.80;1.00
37530;DHT22;23374;52.758;6.872;2023-06-26T02:33:51;23.80;1.00
37530;DHT22;23374;52.758;6.872;2023-06-26T02:36:12;23.70;1.00
37530;DHT22;23374;52.758;6.872;2023-06-26T02:38:32;23.70;1.00
37530;DHT22;23374;52.758;6.872;2023-06-26T02:40:52;23.70;1.00
37530;DHT22;23374;52.758;6.872;2023-06-26T02:43:12;23.70;1.00
37530;DHT22;23374;52.758;6.872;2023-06-26T02:45:32;23.70;1.00
37530;DHT22;23374;52.758;6.872;2023-06-26T02:47:52;23.70;1.00
37530;DHT22;23374;52.758;6.872;2023-06-26T02:50:13;23.60;1.00
37530;DHT22;23374;52.758;6.872;2023-06-26T02:52:33;23.60;1.00
37530;DHT22;23374;52.758;6.872;2023-06-26T02:54:54;23.50;1.00
37530;DHT22;23374;52.758;6.872;2023-06-26T02:57:14;23.40;1.00
37530;DHT22;23374;52.758;6.872;2023-06-26T02:59:37;23.40;1.00
37530;DHT22;23374;52.758;6.872;2023-06-26T03:01:59;23.40;1.00
37530;DHT22;23374;52.758;6.872;2023-06-26T03:04:19;23.40;1.00
37530;DHT22;23374;52.758;6.872;2023-06-26T03:06:41;23.40;1.00
37530;DHT22;23374;52.758;6.872;2023-06-26T03:09:01;23.40;1.00
37530;DHT22;23374;52.758;6.872;2023-06-26T03:11:22;23.40;1.00
37530;DHT22;23374;52.758;6.872;2023-06-26T03:13:42;23.40;1.00
37530;DHT22;23374;52.758;6.872;2023-06-26T03:16:04;23.40;1.00
37530;DHT22;23374;52.758;6.872;2023-06-26T03:18:24;23.40;1.00
37530;DHT22;23374;52.758;6.872;2023-06-26T03:20:44;23.40;1.00
37530;DHT22;23374;52.758;6.872;2023-06-26T03:23:05;23.40;1.00
37530;DHT22;23374;52.758;6.872;2023-06-26T03:25:26;23.40;1.00
37530;DHT22;23374;52.758;6.872;2023-06-26T03:27:46;23.30;1.00
37530;DHT22;23374;52.758;6.872;2023-06-26T03:30:08;23.30;1.00
37530;DHT22;23374;52.758;6.872;2023-06-26T03:32:28;23.30;1.00
37530;DHT22;23374;52.758;6.872;2023-06-26T03:34:48;23.30;1.00
37530;DHT22;23374;52.758;6.872;2023-06-26T03:37:08;23.30;1.00
37530;DHT22;23374;52.758;6.872;2023-06-26T03:39:28;23.30;1.00
37530;DHT22;23374;52.758;6.872;2023-06-26T03:41:49;23.30;1.00
37530;DHT22;23374;52.758;6.872;2023-06-26T03:44:10;23.30;1.00
37530;DHT22;23374;52.758;6.872;2023-06-26T03:46:30;23.20;1.00
37530;DHT22;23374;52.758;6.872;2023-06-26T03:48:50;23.20;1.00
37530;DHT22;23374;52.758;6.872;2023-06-26T03:51:10;23.10;1.00
37530;DHT22;23374;52.758;6.872;2023-06-26T03:53:31;23.10;1.00
37530;DHT22;23374;52.758;6.872;2023-06-26T03:55:51;23.10;1.00
37530;DHT22;23374;52.758;6.872;2023-06-26T03:58:11;23.00;1.00
37530;DHT22;23374;52.758;6.872;2023-06-26T04:00:32;22.90;1.00
37530;DHT22;23374;52.758;6.872;2023-06-26T04:02:52;22.90;1.00
37530;DHT22;23374;52.758;6.872;2023-06-26T04:05:12;22.80;1.00
37530;DHT22;23374;52.758;6.872;2023-06-26T04:07:33;22.80;1.00
37530;DHT22;23374;52.758;6.872;2023-06-26T04:09:54;22.80;1.00
37530;DHT22;23374;52.758;6.872;2023-06-26T04:12:15;22.70;1.00
37530;DHT22;23374;52.758;6.872;2023-06-26T04:14:35;22.70;1.00
37530;DHT22;23374;52.758;6.872;2023-06-26T04:16:55;22.70;1.00
37530;DHT22;23374;52.758;6.872;2023-06-26T04:19:17;22.60;1.00
37530;DHT22;23374;52.758;6.872;2023-06-26T04:21:37;22.60;1.00
37530;DHT22;23374;52.758;6.872;2023-06-26T04:23:58;22.60;1.00
37530;DHT22;23374;52.758;6.872;2023-06-26T04:26:19;22.60;1.00
37530;DHT22;23374;52.758;6.872;2023-06-26T04:28:39;22.70;1.00
37530;DHT22;23374;52.758;6.872;2023-06-26T04:31:03;22.70;1.00
37530;DHT22;23374;52.758;6.872;2023-06-26T04:33:25;22.70;1.00
37530;DHT22;23374;52.758;6.872;2023-06-26T04:35:46;22.70;1.00
37530;DHT22;23374;52.758;6.872;2023-06-26T04:38:09;22.70;1.00
37530;DHT22;23374;52.758;6.872;2023-06-26T04:40:30;22.70;1.00
37530;DHT22;23374;52.758;6.872;2023-06-26T04:42:50;22.70;1.00
37530;DHT22;23374;52.758;6.872;2023-06-26T04:45:10;22.70;1.00
37530;DHT22;23374;52.758;6.872;2023-06-26T04:47:31;22.60;1.00
37530;DHT22;23374;52.758;6.872;2023-06-26T04:49:51;22.60;1.00
37530;DHT22;23374;52.758;6.872;2023-06-26T04:52:13;22.70;1.00
37530;DHT22;23374;52.758;6.872;2023-06-26T04:54:33;22.70;1.00
37530;DHT22;23374;52.758;6.872;2023-06-26T04:56:54;22.60;1.00
37530;DHT22;23374;52.758;6.872;2023-06-26T04:59:14;22.70;1.00
37530;DHT22;23374;52.758;6.872;2023-06-26T05:01:35;22.70;1.00
37530;DHT22;23374;52.758;6.872;2023-06-26T05:03:59;22.70;1.00
37530;DHT22;23374;52.758;6.872;2023-06-26T05:06:20;22.70;1.00
37530;DHT22;23374;52.758;6.872;2023-06-26T05:08:40;22.70;1.00
37530;DHT22;23374;52.758;6.872;2023-06-26T05:11:01;22.70;1.00
37530;DHT22;23374;52.758;6.872;2023-06-26T05:13:21;22.70;1.00
37530;DHT22;23374;52.758;6.872;2023-06-26T05:15:42;22.90;1.00
37530;DHT22;23374;52.758;6.872;2023-06-26T05:18:02;23.10;1.00
37530;DHT22;23374;52.758;6.872;2023-06-26T05:20:22;23.20;1.00
37530;DHT22;23374;52.758;6.872;2023-06-26T05:22:43;23.40;1.00
37530;DHT22;23374;52.758;6.872;2023-06-26T05:25:06;23.50;1.00
37530;DHT22;23374;52.758;6.872;2023-06-26T05:27:28;23.50;1.00
37530;DHT22;23374;52.758;6.872;2023-06-26T05:29:49;23.50;1.00
37530;DHT22;23374;52.758;6.872;2023-06-26T05:32:11;23.50;1.00
37530;DHT22;23374;52.758;6.872;2023-06-26T05:34:33;23.40;1.00
37530;DHT22;23374;52.758;6.872;2023-06-26T05:36:59;23.20;1.00
37530;DHT22;23374;52.758;6.872;2023-06-26T05:39:20;23.10;1.00
37530;DHT22;23374;52.758;6.872;2023-06-26T05:41:46;23.00;1.00
37530;DHT22;23374;52.758;6.872;2023-06-26T05:44:07;23.00;1.00
37530;DHT22;23374;52.758;6.872;2023-06-26T05:46:27;22.80;1.00
37530;DHT22;23374;52.758;6.872;2023-06-26T05:48:47;22.80;1.00
37530;DHT22;23374;52.758;6.872;2023-06-26T05:51:09;22.80;1.00
37530;DHT22;23374;52.758;6.872;2023-06-26T05:53:30;22.80;1.00
37530;DHT22;23374;52.758;6.872;2023-06-26T05:55:52;22.80;1.00
37530;DHT22;23374;52.758;6.872;2023-06-26T05:58:13;22.70;1.00
37530;DHT22;23374;52.758;6.872;2023-06-26T06:00:35;22.60;1.00
37530;DHT22;23374;52.758;6.872;2023-06-26T06:02:56;22.50;1.00
37530;DHT22;23374;52.758;6.872;2023-06-26T06:05:16;22.40;1.00
37530;DHT22;23374;52.758;6.872;2023-06-26T06:07:37;22.30;1.00
37530;DHT22;23374;52.758;6.872;2023-06-26T06:09:57;22.30;1.90
37530;DHT22;23374;52.758;6.872;2023-06-26T06:12:18;22.30;2.50
37530;DHT22;23374;52.758;6.872;2023-06-26T06:14:39;22.50;1.00
37530;DHT22;23374;52.758;6.872;2023-06-26T06:16:59;22.70;1.00
37530;DHT22;23374;52.758;6.872;2023-06-26T06:19:20;22.80;1.00
37530;DHT22;23374;52.758;6.872;2023-06-26T06:21:40;23.00;1.00
37530;DHT22;23374;52.758;6.872;2023-06-26T06:24:00;23.10;1.00
37530;DHT22;23374;52.758;6.872;2023-06-26T06:26:21;23.10;1.00
37530;DHT22;23374;52.758;6.872;2023-06-26T06:28:41;23.10;1.00
37530;DHT22;23374;52.758;6.872;2023-06-26T06:31:02;23.00;1.00
37530;DHT22;23374;52.758;6.872;2023-06-26T06:33:22;23.00;1.00
37530;DHT22;23374;52.758;6.872;2023-06-26T06:35:43;22.90;1.00
37530;DHT22;23374;52.758;6.872;2023-06-26T06:38:03;22.90;1.00
37530;DHT22;23374;52.758;6.872;2023-06-26T06:40:24;22.90;1.00
37530;DHT22;23374;52.758;6.872;2023-06-26T06:42:46;22.90;1.00
37530;DHT22;23374;52.758;6.872;2023-06-26T06:45:07;22.80;1.00
37530;DHT22;23374;52.758;6.872;2023-06-26T06:47:28;22.80;1.00
37530;DHT22;23374;52.758;6.872;2023-06-26T06:49:48;22.80;1.00
37530;DHT22;23374;52.758;6.872;2023-06-26T06:52:09;22.80;1.00
37530;DHT22;23374;52.758;6.872;2023-06-26T06:54:29;22.90;1.00
37530;DHT22;23374;52.758;6.872;2023-06-26T06:56:50;22.80;1.00
37530;DHT22;23374;52.758;6.872;2023-06-26T06:59:10;22.80;1.00
37530;DHT22;23374;52.758;6.872;2023-06-26T07:01:30;22.70;1.00
37530;DHT22;23374;52.758;6.872;2023-06-26T07:03:50;22.70;1.00
37530;DHT22;23374;52.758;6.872;2023-06-26T07:06:10;22.70;1.00
37530;DHT22;23374;52.758;6.872;2023-06-26T07:08:30;22.70;1.00
37530;DHT22;23374;52.758;6.872;2023-06-26T07:10:51;22.70;1.00
37530;DHT22;23374;52.758;6.872;2023-06-26T07:13:11;22.60;1.00
37530;DHT22;23374;52.758;6.872;2023-06-26T07:15:32;22.60;1.00
37530;DHT22;23374;52.758;6.872;2023-06-26T07:17:52;22.70;1.00
37530;DHT22;23374;52.758;6.872;2023-06-26T07:20:12;22.70;1.00
37530;DHT22;23374;52.758;6.872;2023-06-26T07:22:36;22.70;1.00
37530;DHT22;23374;52.758;6.872;2023-06-26T07:24:57;22.90;1.00
37530;DHT22;23374;52.758;6.872;2023-06-26T07:27:17;23.00;1.00
37530;DHT22;23374;52.758;6.872;2023-06-26T07:29:39;23.10;1.00
37530;DHT22;23374;52.758;6.872;2023-06-26T07:31:59;23.10;1.00
37530;DHT22;23374;52.758;6.872;2023-06-26T07:34:19;23.10;1.00
37530;DHT22;23374;52.758;6.872;2023-06-26T07:36:39;23.20;1.00
37530;DHT22;23374;52.758;6.872;2023-06-26T07:38:59;23.10;1.00
37530;DHT22;23374;52.758;6.872;2023-06-26T07:41:20;23.10;1.00
37530;DHT22;23374;52.758;6.872;2023-06-26T07:43:40;23.00;1.00
37530;DHT22;23374;52.758;6.872;2023-06-26T07:46:00;22.90;1.00
37530;DHT22;23374;52.758;6.872;2023-06-26T07:48:21;22.90;1.00
37530;DHT22;23374;52.758;6.872;2023-06-26T07:50:41;22.90;1.00
37530;DHT22;23374;52.758;6.872;2023-06-26T07:53:01;22.90;1.00
37530;DHT22;23374;52.758;6.872;2023-06-26T07:55:22;23.00;1.00
37530;DHT22;23374;52.758;6.872;2023-06-26T07:57:43;23.10;1.00
37530;DHT22;23374;52.758;6.872;2023-06-26T08:00:07;23.10;1.00
37530;DHT22;23374;52.758;6.872;2023-06-26T08:02:27;23.10;1.00
37530;DHT22;23374;52.758;6.872;2023-06-26T08:04:47;23.20;1.00
37530;DHT22;23374;52.758;6.872;2023-06-26T08:07:07;23.20;1.00
37530;DHT22;23374;52.758;6.872;2023-06-26T08:09:29;23.30;1.00
37530;DHT22;23374;52.758;6.872;2023-06-26T08:11:50;23.30;1.00
37530;DHT22;23374;52.758;6.872;2023-06-26T08:14:11;23.30;1.00
37530;DHT22;23374;52.758;6.872;2023-06-26T08:16:34;23.40;1.00
37530;DHT22;23374;52.758;6.872;2023-06-26T08:18:55;23.40;1.00
37530;DHT22;23374;52.758;6.872;2023-06-26T08:21:14;23.40;1.00
37530;DHT22;23374;52.758;6.872;2023-06-26T08:23:35;23.50;1.00
37530;DHT22;23374;52.758;6.872;2023-06-26T08:25:55;23.50;1.00
37530;DHT22;23374;52.758;6.872;2023-06-26T08:28:18;23.50;1.00
37530;DHT22;23374;52.758;6.872;2023-06-26T08:30:39;23.60;1.00
37530;DHT22;23374;52.758;6.872;2023-06-26T08:32:59;23.60;1.00
37530;DHT22;23374;52.758;6.872;2023-06-26T08:35:20;23.60;1.00
37530;DHT22;23374;52.758;6.872;2023-06-26T08:37:41;23.60;1.00
37530;DHT22;23374;52.758;6.872;2023-06-26T08:40:01;23.60;1.00
37530;DHT22;23374;52.758;6.872;2023-06-26T08:42:21;23.60;1.00
37530;DHT22;23374;52.758;6.872;2023-06-26T08:44:42;23.60;1.00
37530;DHT22;23374;52.758;6.872;2023-06-26T08:47:03;23.60;1.00
37530;DHT22;23374;52.758;6.872;2023-06-26T08:50:08;23.60;1.00
37530;DHT22;23374;52.758;6.872;2023-06-26T08:53:30;23.60;1.00
37530;DHT22;23374;52.758;6.872;2023-06-26T08:55:53;23.70;1.00
37530;DHT22;23374;52.758;6.872;2023-06-26T08:58:15;23.60;1.00
37530;DHT22;23374;52.758;6.872;2023-06-26T09:00:35;23.60;1.00
37530;DHT22;23374;52.758;6.872;2023-06-26T09:02:56;23.60;1.00
37530;DHT22;23374;52.758;6.872;2023-06-26T09:05:17;23.70;1.00
37530;DHT22;23374;52.758;6.872;2023-06-26T09:07:39;23.80;1.00
37530;DHT22;23374;52.758;6.872;2023-06-26T09:09:59;23.80;1.00
37530;DHT22;23374;52.758;6.872;2023-06-26T09:12:21;23.70;1.00
37530;DHT22;23374;52.758;6.872;2023-06-26T09:14:41;23.60;1.00
37530;DHT22;23374;52.758;6.872;2023-06-26T09:17:02;23.70;1.00
37530;DHT22;23374;52.758;6.872;2023-06-26T09:19:22;23.70;1.00
37530;DHT22;23374;52.758;6.872;2023-06-26T09:21:43;23.70;1.00
37530;DHT22;23374;52.758;6.872;2023-06-26T09:24:06;23.90;1.00
37530;DHT22;23374;52.758;6.872;2023-06-26T09:26:26;24.00;1.00
37530;DHT22;23374;52.758;6.872;2023-06-26T09:28:48;24.00;1.00
37530;DHT22;23374;52.758;6.872;2023-06-26T09:31:11;23.90;1.00
37530;DHT22;23374;52.758;6.872;2023-06-26T09:33:37;23.70;1.00
37530;DHT22;23374;52.758;6.872;2023-06-26T09:35:58;23.50;1.00
37530;DHT22;23374;52.758;6.872;2023-06-26T09:38:19;23.40;1.00
37530;DHT22;23374;52.758;6.872;2023-06-26T09:40:41;23.40;1.00
37530;DHT22;23374;52.758;6.872;2023-06-26T09:43:09;23.40;1.00
37530;DHT22;23374;52.758;6.872;2023-06-26T09:45:34;23.50;1.00
37530;DHT22;23374;52.758;6.872;2023-06-26T09:48:00;23.60;1.00
37530;DHT22;23374;52.758;6.872;2023-06-26T09:50:24;23.60;1.00
37530;DHT22;23374;52.758;6.872;2023-06-26T09:52:46;23.40;1.00
37530;DHT22;23374;52.758;6.872;2023-06-26T09:55:10;23.40;1.00
37530;DHT22;23374;52.758;6.872;2023-06-26T09:57:34;23.50;1.00
37530;DHT22;23374;52.758;6.872;2023-06-26T09:59:55;23.70;1.00
37530;DHT22;23374;52.758;6.872;2023-06-26T10:02:16;23.90;1.00
37530;DHT22;23374;52.758;6.872;2023-06-26T10:04:37;24.00;1.00
37530;DHT22;23374;52.758;6.872;2023-06-26T10:07:01;24.00;1.00
37530;DHT22;23374;52.758;6.872;2023-06-26T10:09:23;23.90;1.00
37530;DHT22;23374;52.758;6.872;2023-06-26T10:12:13;23.90;1.00
37530;DHT22;23374;52.758;6.872;2023-06-26T10:14:37;23.80;1.00
37530;DHT22;23374;52.758;6.872;2023-06-26T10:17:01;23.90;1.00
37530;DHT22;23374;52.758;6.872;2023-06-26T10:19:24;24.10;1.00
37530;DHT22;23374;52.758;6.872;2023-06-26T10:21:46;24.20;1.00
37530;DHT22;23374;52.758;6.872;2023-06-26T10:24:08;24.20;1.00
37530;DHT22;23374;52.758;6.872;2023-06-26T10:26:30;24.20;1.00
37530;DHT22;23374;52.758;6.872;2023-06-26T10:28:53;24.20;1.00
37530;DHT22;23374;52.758;6.872;2023-06-26T10:31:14;24.10;1.00
37530;DHT22;23374;52.758;6.872;2023-06-26T10:33:35;24.20;1.00
37530;DHT22;23374;52.758;6.872;2023-06-26T10:36:17;24.20;1.00
37530;DHT22;23374;52.758;6.872;2023-06-26T10:38:52;24.10;1.00
37530;DHT22;23374;52.758;6.872;2023-06-26T10:41:14;24.00;1.00
37530;DHT22;23374;52.758;6.872;2023-06-26T10:43:39;23.90;1.00
37530;DHT22;23374;52.758;6.872;2023-06-26T10:45:59;23.90;1.00
37530;DHT22;23374;52.758;6.872;2023-06-26T10:48:20;24.00;1.00
37530;DHT22;23374;52.758;6.872;2023-06-26T10:50:41;24.10;1.00
37530;DHT22;23374;52.758;6.872;2023-06-26T10:53:29;24.20;1.00
37530;DHT22;23374;52.758;6.872;2023-06-26T10:56:00;24.30;1.00
37530;DHT22;23374;52.758;6.872;2023-06-26T10:58:41;24.40;1.00
37530;DHT22;23374;52.758;6.872;2023-06-26T11:01:23;24.40;1.00
37530;DHT22;23374;52.758;6.872;2023-06-26T11:03:46;24.40;1.00
37530;DHT22;23374;52.758;6.872;2023-06-26T11:06:19;24.40;1.00
37530;DHT22;23374;52.758;6.872;2023-06-26T11:08:51;24.30;1.00
37530;DHT22;23374;52.758;6.872;2023-06-26T11:11:16;24.20;1.00
37530;DHT22;23374;52.758;6.872;2023-06-26T11:13:37;24.10;1.00
37530;DHT22;23374;52.758;6.872;2023-06-26T11:15:58;24.20;1.00
37530;DHT22;23374;52.758;6.872;2023-06-26T11:18:19;24.20;1.00
37530;DHT22;23374;52.758;6.872;2023-06-26T11:20:40;24.20;1.00
37530;DHT22;23374;52.758;6.872;2023-06-26T11:23:02;24.20;1.00
37530;DHT22;23374;52.758;6.872;2023-06-26T11:25:24;24.30;1.00
37530;DHT22;23374;52.758;6.872;2023-06-26T11:27:44;24.20;1.00
37530;DHT22;23374;52.758;6.872;2023-06-26T11:30:07;24.20;99.90
37530;DHT22;23374;52.758;6.872;2023-06-26T11:32:28;24.10;99.90
37530;DHT22;23374;52.758;6.872;2023-06-26T11:34:49;24.20;99.90
37530;DHT22;23374;52.758;6.872;2023-06-26T11:37:09;24.20;99.90
37530;DHT22;23374;52.758;6.872;2023-06-26T11:39:32;24.30;99.90
37530;DHT22;23374;52.758;6.872;2023-06-26T11:41:53;24.50;99.90
37530;DHT22;23374;52.758;6.872;2023-06-26T11:44:13;24.50;99.90
37530;DHT22;23374;52.758;6.872;2023-06-26T11:46:40;24.50;99.90
37530;DHT22;23374;52.758;6.872;2023-06-26T11:49:03;24.50;99.90
37530;DHT22;23374;52.758;6.872;2023-06-26T11:51:27;24.60;99.90
37530;DHT22;23374;52.758;6.872;2023-06-26T11:53:48;24.60;99.90
37530;DHT22;23374;52.758;6.872;2023-06-26T11:56:14;24.60;99.90
37530;DHT22;23374;52.758;6.872;2023-06-26T11:58:35;24.50;99.90
37530;DHT22;23374;52.758;6.872;2023-06-26T12:00:55;24.40;99.90
37530;DHT22;23374;52.758;6.872;2023-06-26T12:03:16;24.40;99.90
37530;DHT22;23374;52.758;6.872;2023-06-26T12:05:36;24.40;99.90
37530;DHT22;23374;52.758;6.872;2023-06-26T12:07:57;24.50;99.90
37530;DHT22;23374;52.758;6.872;2023-06-26T12:10:20;24.40;99.90
37530;DHT22;23374;52.758;6.872;2023-06-26T12:12:40;24.40;99.90
37530;DHT22;23374;52.758;6.872;2023-06-26T12:15:01;24.40;99.90
37530;DHT22;23374;52.758;6.872;2023-06-26T12:17:23;24.30;99.90
37530;DHT22;23374;52.758;6.872;2023-06-26T12:19:47;24.30;99.90
37530;DHT22;23374;52.758;6.872;2023-06-26T12:22:11;24.30;99.90
37530;DHT22;23374;52.758;6.872;2023-06-26T12:24:31;24.20;99.90
37530;DHT22;23374;52.758;6.872;2023-06-26T12:26:55;24.20;99.90
37530;DHT22;23374;52.758;6.872;2023-06-26T12:29:18;24.30;99.90
37530;DHT22;23374;52.758;6.872;2023-06-26T12:31:43;24.40;99.90
37530;DHT22;23374;52.758;6.872;2023-06-26T12:34:13;24.40;99.90
37530;DHT22;23374;52.758;6.872;2023-06-26T12:36:44;24.40;99.90
37530;DHT22;23374;52.758;6.872;2023-06-26T12:39:08;24.30;99.90
37530;DHT22;23374;52.758;6.872;2023-06-26T12:41:29;24.20;99.90
37530;DHT22;23374;52.758;6.872;2023-06-26T12:43:49;24.10;99.90
37530;DHT22;23374;52.758;6.872;2023-06-26T12:46:15;24.10;99.90
37530;DHT22;23374;52.758;6.872;2023-06-26T12:48:43;24.20;99.90
37530;DHT22;23374;52.758;6.872;2023-06-26T12:51:15;24.00;99.90
37530;DHT22;23374;52.758;6.872;2023-06-26T12:53:35;23.90;99.90
37530;DHT22;23374;52.758;6.872;2023-06-26T12:55:56;23.80;99.90
37530;DHT22;23374;52.758;6.872;2023-06-26T12:58:16;23.80;99.90
37530;DHT22;23374;52.758;6.872;2023-06-26T13:00:37;23.90;99.90
37530;DHT22;23374;52.758;6.872;2023-06-26T13:02:57;24.00;99.90
37530;DHT22;23374;52.758;6.872;2023-06-26T13:05:19;24.00;99.90
37530;DHT22;23374;52.758;6.872;2023-06-26T13:07:39;24.00;99.90
37530;DHT22;23374;52.758;6.872;2023-06-26T13:09:59;24.00;99.90
37530;DHT22;23374;52.758;6.872;2023-06-26T13:12:20;24.00;99.90
37530;DHT22;23374;52.758;6.872;2023-06-26T13:14:40;24.00;99.90
37530;DHT22;23374;52.758;6.872;2023-06-26T13:17:01;24.00;99.90
37530;DHT22;23374;52.758;6.872;2023-06-26T13:19:22;24.00;99.90
37530;DHT22;23374;52.758;6.872;2023-06-26T13:21:43;24.00;99.90
37530;DHT22;23374;52.758;6.872;2023-06-26T13:24:05;24.00;99.90
37530;DHT22;23374;52.758;6.872;2023-06-26T13:26:26;24.00;99.90
37530;DHT22;23374;52.758;6.872;2023-06-26T13:28:49;24.10;99.90
37530;DHT22;23374;52.758;6.872;2023-06-26T13:31:10;24.10;99.90
37530;DHT22;23374;52.758;6.872;2023-06-26T13:33:31;24.20;99.90
37530;DHT22;23374;52.758;6.872;2023-06-26T13:35:52;24.20;99.90
37530;DHT22;23374;52.758;6.872;2023-06-26T13:38:13;24.10;99.90
37530;DHT22;23374;52.758;6.872;2023-06-26T13:40:34;24.00;99.90
37530;DHT22;23374;52.758;6.872;2023-06-26T13:42:54;23.90;99.90
37530;DHT22;23374;52.758;6.872;2023-06-26T13:45:15;23.90;99.90
37530;DHT22;23374;52.758;6.872;2023-06-26T13:47:35;24.00;99.90
37530;DHT22;23374;52.758;6.872;2023-06-26T13:49:57;23.90;99.90
37530;DHT22;23374;52.758;6.872;2023-06-26T13:52:18;23.80;99.90
37530;DHT22;23374;52.758;6.872;2023-06-26T13:54:38;23.60;99.90
37530;DHT22;23374;52.758;6.872;2023-06-26T13:57:00;23.60;99.90
37530;DHT22;23374;52.758;6.872;2023-06-26T13:59:22;23.50;99.90
37530;DHT22;23374;52.758;6.872;2023-06-26T14:01:42;23.50;99.90
37530;DHT22;23374;52.758;6.872;2023-06-26T14:04:04;23.50;99.90
37530;DHT22;23374;52.758;6.872;2023-06-26T14:06:24;23.50;99.90
37530;DHT22;23374;52.758;6.872;2023-06-26T14:08:45;23.50;99.90
37530;DHT22;23374;52.758;6.872;2023-06-26T14:11:05;23.50;99.90
37530;DHT22;23374;52.758;6.872;2023-06-26T14:13:25;23.50;99.90
37530;DHT22;23374;52.758;6.872;2023-06-26T14:15:46;23.50;99.90
37530;DHT22;23374;52.758;6.872;2023-06-26T14:18:06;23.40;99.90
37530;DHT22;23374;52.758;6.872;2023-06-26T14:20:27;23.40;99.90
37530;DHT22;23374;52.758;6.872;2023-06-26T14:22:49;23.50;99.90
37530;DHT22;23374;52.758;6.872;2023-06-26T14:25:10;23.60;99.90
37530;DHT22;23374;52.758;6.872;2023-06-26T14:27:32;23.60;99.90
37530;DHT22;23374;52.758;6.872;2023-06-26T14:29:52;23.60;99.90
37530;DHT22;23374;52.758;6.872;2023-06-26T14:32:13;23.50;99.90
37530;DHT22;23374;52.758;6.872;2023-06-26T14:34:33;23.40;99.90
37530;DHT22;23374;52.758;6.872;2023-06-26T14:36:54;23.30;99.90
37530;DHT22;23374;52.758;6.872;2023-06-26T14:39:15;23.30;99.90
37530;DHT22;23374;52.758;6.872;2023-06-26T14:41:35;23.10;99.90
37530;DHT22;23374;52.758;6.872;2023-06-26T14:43:55;23.10;99.90
37530;DHT22;23374;52.758;6.872;2023-06-26T14:46:16;23.00;99.90
37530;DHT22;23374;52.758;6.872;2023-06-26T14:48:36;23.00;99.90
37530;DHT22;23374;52.758;6.872;2023-06-26T14:50:57;23.00;99.90
37530;DHT22;23374;52.758;6.872;2023-06-26T14:53:17;23.20;99.90
37530;DHT22;23374;52.758;6.872;2023-06-26T14:55:38;23.20;99.90
37530;DHT22;23374;52.758;6.872;2023-06-26T14:57:59;23.20;99.90
37530;DHT22;23374;52.758;6.872;2023-06-26T15:00:20;23.30;99.90
37530;DHT22;23374;52.758;6.872;2023-06-26T15:02:41;23.30;99.90
37530;DHT22;23374;52.758;6.872;2023-06-26T15:05:02;23.30;99.90
37530;DHT22;23374;52.758;6.872;2023-06-26T15:07:22;23.30;99.90
37530;DHT22;23374;52.758;6.872;2023-06-26T15:09:42;23.30;99.90
37530;DHT22;23374;52.758;6.872;2023-06-26T15:12:04;23.30;99.90
37530;DHT22;23374;52.758;6.872;2023-06-26T15:14:24;23.30;99.90